sensor_id;sensor_type;location;lat;lon;timestamp;P1;durP1;ratioP1;P2;durP2;ratioP2
20056;SDS011;10189;49.546;7.906;2024-01-27T00:02:00;13.90;;;6.53;;
20056;SDS011;10189;49.546;7.906;2024-01-27T00:04:26;12.93;;;6.38;;
20056;SDS011;10189;49.546;7.906;2024-01-27T00:06:52;13.05;;;5.30;;
20056;SDS011;10189;49.546;7.906;2024-01-27T00:09:18;11.60;;;5.72;;
20056;SDS011;10189;49.546;7.906;2024-01-27T00:11:43;11.25;;;5.40;;
20056;SDS011;10189;49.546;7.906;2024-01-27T00:14:09;13.60;;;7.13;;
20056;SDS011;10189;49.546;7.906;2024-01-27T00:16:35;24.17;;;12.32;;
20056;SDS011;10189;49.546;7.906;2024-01-27T00:19:01;16.02;;;8.82;;
20056;SDS011;10189;49.546;7.906;2024-01-27T00:21:27;16.55;;;8.65;;
20056;SDS011;10189;49.546;7.906;2024-01-27T00:23:53;19.55;;;9.10;;
20056;SDS011;10189;49.546;7.906;2024-01-27T00:26:19;16.13;;;7.72;;
20056;SDS011;10189;49.546;7.906;2024-01-27T00:28:44;13.45;;;7.22;;
20056;SDS011;10189;49.546;7.906;2024-01-27T00:31:10;16.98;;;7.82;;
20056;SDS011;10189;49.546;7.906;2024-01-27T00:33:36;19.95;;;8.38;;
20056;SDS011;10189;49.546;7.906;2024-01-27T00:36:03;13.43;;;7.53;;
20056;SDS011;10189;49.546;7.906;2024-01-27T00:38:29;11.70;;;6.90;;
20056;SDS011;10189;49.546;7.906;2024-01-27T00:40:55;12.80;;;6.90;;
20056;SDS011;10189;49.546;7.906;2024-01-27T00:43:21;11.98;;;6.68;;
20056;SDS011;10189;49.546;7.906;2024-01-27T00:45:46;11.27;;;7.10;;
20056;SDS011;10189;49.546;7.906;2024-01-27T00:48:12;16.08;;;7.22;;
20056;SDS011;10189;49.546;7.906;2024-01-27T00:50:38;12.15;;;7.20;;
20056;SDS011;10189;49.546;7.906;2024-01-27T00:53:04;12.23;;;5.93;;
20056;SDS011;10189;49.546;7.906;2024-01-27T00:55:30;12.18;;;6.35;;
20056;SDS011;10189;49.546;7.906;2024-01-27T00:57:55;12.60;;;6.00;;
20056;SDS011;10189;49.546;7.906;2024-01-27T01:00:21;10.25;;;5.10;;
20056;SDS011;10189;49.546;7.906;2024-01-27T01:02:47;12.20;;;4.95;;
20056;SDS011;10189;49.546;7.906;2024-01-27T01:05:13;9.45;;;5.18;;
20056;SDS011;10189;49.546;7.906;2024-01-27T01:07:39;12.52;;;5.88;;
20056;SDS011;10189;49.546;7.906;2024-01-27T01:10:05;15.43;;;5.28;;
20056;SDS011;10189;49.546;7.906;2024-01-27T01:12:32;12.32;;;5.15;;
20056;SDS011;10189;49.546;7.906;2024-01-27T01:14:58;10.05;;;4.88;;
20056;SDS011;10189;49.546;7.906;2024-01-27T01:17:24;14.43;;;5.43;;
20056;SDS011;10189;49.546;7.906;2024-01-27T01:19:50;16.92;;;5.32;;
20056;SDS011;10189;49.546;7.906;2024-01-27T01:22:15;9.15;;;4.80;;
20056;SDS011;10189;49.546;7.906;2024-01-27T01:24:41;10.10;;;5.30;;
20056;SDS011;10189;49.546;7.906;2024-01-27T01:27:07;8.85;;;4.50;;
20056;SDS011;10189;49.546;7.906;2024-01-27T01:29:33;10.85;;;4.63;;
20056;SDS011;10189;49.546;7.906;2024-01-27T01:32:00;11.43;;;5.22;;
20056;SDS011;10189;49.546;7.906;2024-01-27T01:34:28;10.70;;;5.22;;
20056;SDS011;10189;49.546;7.906;2024-01-27T01:36:54;7.80;;;4.80;;
20056;SDS011;10189;49.546;7.906;2024-01-27T01:39:20;9.30;;;4.38;;
20056;SDS011;10189;49.546;7.906;2024-01-27T01:41:45;13.05;;;5.28;;
20056;SDS011;10189;49.546;7.906;2024-01-27T01:44:11;13.80;;;4.82;;
20056;SDS011;10189;49.546;7.906;2024-01-27T01:46:37;10.13;;;4.80;;
20056;SDS011;10189;49.546;7.906;2024-01-27T01:49:04;13.45;;;5.10;;
20056;SDS011;10189;49.546;7.906;2024-01-27T01:51:30;9.40;;;5.38;;
20056;SDS011;10189;49.546;7.906;2024-01-27T01:53:57;10.40;;;5.47;;
20056;SDS011;10189;49.546;7.906;2024-01-27T01:56:24;13.52;;;5.13;;
20056;SDS011;10189;49.546;7.906;2024-01-27T01:58:50;13.40;;;5.68;;
20056;SDS011;10189;49.546;7.906;2024-01-27T02:01:19;10.63;;;6.10;;
20056;SDS011;10189;49.546;7.906;2024-01-27T02:03:58;12.68;;;5.93;;
20056;SDS011;10189;49.546;7.906;2024-01-27T02:06:24;14.30;;;5.95;;
20056;SDS011;10189;49.546;7.906;2024-01-27T02:08:50;13.98;;;6.32;;
20056;SDS011;10189;49.546;7.906;2024-01-27T02:11:16;13.63;;;6.43;;
20056;SDS011;10189;49.546;7.906;2024-01-27T02:13:43;11.60;;;6.20;;
20056;SDS011;10189;49.546;7.906;2024-01-27T02:16:09;13.48;;;6.45;;
20056;SDS011;10189;49.546;7.906;2024-01-27T02:18:35;15.02;;;6.55;;
20056;SDS011;10189;49.546;7.906;2024-01-27T02:21:01;12.32;;;6.60;;
20056;SDS011;10189;49.546;7.906;2024-01-27T02:23:27;11.35;;;6.28;;
20056;SDS011;10189;49.546;7.906;2024-01-27T02:25:53;13.98;;;6.90;;
20056;SDS011;10189;49.546;7.906;2024-01-27T02:28:19;19.35;;;6.65;;
20056;SDS011;10189;49.546;7.906;2024-01-27T02:30:45;13.45;;;6.70;;
20056;SDS011;10189;49.546;7.906;2024-01-27T02:33:11;12.52;;;6.80;;
20056;SDS011;10189;49.546;7.906;2024-01-27T02:35:37;14.05;;;6.65;;
20056;SDS011;10189;49.546;7.906;2024-01-27T02:38:03;15.63;;;6.80;;
20056;SDS011;10189;49.546;7.906;2024-01-27T02:40:29;22.00;;;11.23;;
20056;SDS011;10189;49.546;7.906;2024-01-27T02:42:55;15.57;;;8.75;;
20056;SDS011;10189;49.546;7.906;2024-01-27T02:45:21;21.38;;;9.13;;
20056;SDS011;10189;49.546;7.906;2024-01-27T02:47:47;14.18;;;8.45;;
20056;SDS011;10189;49.546;7.906;2024-01-27T02:50:13;17.63;;;9.70;;
20056;SDS011;10189;49.546;7.906;2024-01-27T02:52:39;18.92;;;9.45;;
20056;SDS011;10189;49.546;7.906;2024-01-27T02:55:05;21.75;;;9.32;;
20056;SDS011;10189;49.546;7.906;2024-01-27T02:57:32;19.63;;;9.60;;
20056;SDS011;10189;49.546;7.906;2024-01-27T02:59:57;27.75;;;11.10;;
20056;SDS011;10189;49.546;7.906;2024-01-27T03:02:23;17.33;;;9.60;;
20056;SDS011;10189;49.546;7.906;2024-01-27T03:04:49;20.65;;;9.48;;
20056;SDS011;10189;49.546;7.906;2024-01-27T03:07:15;16.17;;;9.40;;
20056;SDS011;10189;49.546;7.906;2024-01-27T03:09:41;19.80;;;9.43;;
20056;SDS011;10189;49.546;7.906;2024-01-27T03:12:07;18.92;;;9.10;;
20056;SDS011;10189;49.546;7.906;2024-01-27T03:14:33;17.27;;;9.20;;
20056;SDS011;10189;49.546;7.906;2024-01-27T03:16:59;23.45;;;9.35;;
20056;SDS011;10189;49.546;7.906;2024-01-27T03:19:25;16.20;;;8.82;;
20056;SDS011;10189;49.546;7.906;2024-01-27T03:21:50;20.80;;;9.27;;
20056;SDS011;10189;49.546;7.906;2024-01-27T03:24:16;20.15;;;9.48;;
20056;SDS011;10189;49.546;7.906;2024-01-27T03:26:42;16.90;;;8.85;;
20056;SDS011;10189;49.546;7.906;2024-01-27T03:29:08;23.63;;;10.63;;
20056;SDS011;10189;49.546;7.906;2024-01-27T03:31:34;19.77;;;10.00;;
20056;SDS011;10189;49.546;7.906;2024-01-27T03:34:00;19.92;;;10.27;;
20056;SDS011;10189;49.546;7.906;2024-01-27T03:36:27;19.45;;;9.88;;
20056;SDS011;10189;49.546;7.906;2024-01-27T03:38:54;21.45;;;10.02;;
20056;SDS011;10189;49.546;7.906;2024-01-27T03:41:21;22.02;;;10.32;;
20056;SDS011;10189;49.546;7.906;2024-01-27T03:43:47;21.10;;;10.95;;
20056;SDS011;10189;49.546;7.906;2024-01-27T03:46:13;22.95;;;11.07;;
20056;SDS011;10189;49.546;7.906;2024-01-27T03:48:39;20.83;;;11.13;;
20056;SDS011;10189;49.546;7.906;2024-01-27T03:51:06;20.25;;;10.45;;
20056;SDS011;10189;49.546;7.906;2024-01-27T03:53:31;18.20;;;9.82;;
20056;SDS011;10189;49.546;7.906;2024-01-27T03:55:57;24.05;;;10.70;;
20056;SDS011;10189;49.546;7.906;2024-01-27T03:58:24;20.15;;;8.82;;
20056;SDS011;10189;49.546;7.906;2024-01-27T04:00:51;21.08;;;9.13;;
20056;SDS011;10189;49.546;7.906;2024-01-27T04:03:17;19.52;;;9.50;;
20056;SDS011;10189;49.546;7.906;2024-01-27T04:05:42;16.90;;;8.52;;
20056;SDS011;10189;49.546;7.906;2024-01-27T04:08:08;21.05;;;9.50;;
20056;SDS011;10189;49.546;7.906;2024-01-27T04:10:35;24.45;;;9.52;;
20056;SDS011;10189;49.546;7.906;2024-01-27T04:13:02;17.15;;;8.50;;
20056;SDS011;10189;49.546;7.906;2024-01-27T04:15:28;21.05;;;9.77;;
20056;SDS011;10189;49.546;7.906;2024-01-27T04:17:54;21.30;;;10.23;;
20056;SDS011;10189;49.546;7.906;2024-01-27T04:20:20;20.70;;;8.85;;
20056;SDS011;10189;49.546;7.906;2024-01-27T04:22:46;25.17;;;8.77;;
20056;SDS011;10189;49.546;7.906;2024-01-27T04:25:12;20.02;;;9.10;;
20056;SDS011;10189;49.546;7.906;2024-01-27T04:27:38;19.40;;;8.70;;
20056;SDS011;10189;49.546;7.906;2024-01-27T04:30:06;17.70;;;9.65;;
20056;SDS011;10189;49.546;7.906;2024-01-27T04:32:32;19.33;;;8.75;;
20056;SDS011;10189;49.546;7.906;2024-01-27T04:34:58;17.88;;;8.00;;
20056;SDS011;10189;49.546;7.906;2024-01-27T04:37:24;19.83;;;8.70;;
20056;SDS011;10189;49.546;7.906;2024-01-27T04:39:50;22.08;;;8.43;;
20056;SDS011;10189;49.546;7.906;2024-01-27T04:42:16;17.92;;;8.93;;
20056;SDS011;10189;49.546;7.906;2024-01-27T04:44:42;19.23;;;8.77;;
20056;SDS011;10189;49.546;7.906;2024-01-27T04:47:08;19.83;;;8.68;;
20056;SDS011;10189;49.546;7.906;2024-01-27T04:49:34;26.17;;;9.27;;
20056;SDS011;10189;49.546;7.906;2024-01-27T04:51:59;20.63;;;8.60;;
20056;SDS011;10189;49.546;7.906;2024-01-27T04:54:25;21.08;;;9.18;;
20056;SDS011;10189;49.546;7.906;2024-01-27T04:56:51;23.58;;;9.63;;
20056;SDS011;10189;49.546;7.906;2024-01-27T04:59:17;18.05;;;8.43;;
20056;SDS011;10189;49.546;7.906;2024-01-27T05:01:46;18.67;;;8.43;;
20056;SDS011;10189;49.546;7.906;2024-01-27T05:04:12;21.48;;;9.32;;
20056;SDS011;10189;49.546;7.906;2024-01-27T05:06:38;21.52;;;9.20;;
20056;SDS011;10189;49.546;7.906;2024-01-27T05:09:09;18.52;;;8.63;;
20056;SDS011;10189;49.546;7.906;2024-01-27T05:11:35;21.42;;;8.70;;
20056;SDS011;10189;49.546;7.906;2024-01-27T05:14:00;18.40;;;8.27;;
20056;SDS011;10189;49.546;7.906;2024-01-27T05:16:27;22.40;;;10.02;;
20056;SDS011;10189;49.546;7.906;2024-01-27T05:18:53;22.75;;;9.45;;
20056;SDS011;10189;49.546;7.906;2024-01-27T05:21:19;23.35;;;9.50;;
20056;SDS011;10189;49.546;7.906;2024-01-27T05:23:45;24.67;;;11.63;;
20056;SDS011;10189;49.546;7.906;2024-01-27T05:26:11;25.27;;;11.60;;
20056;SDS011;10189;49.546;7.906;2024-01-27T05:28:37;20.90;;;10.15;;
20056;SDS011;10189;49.546;7.906;2024-01-27T05:31:08;22.17;;;10.02;;
20056;SDS011;10189;49.546;7.906;2024-01-27T05:33:34;23.10;;;9.85;;
20056;SDS011;10189;49.546;7.906;2024-01-27T05:36:01;21.17;;;9.45;;
20056;SDS011;10189;49.546;7.906;2024-01-27T05:38:27;19.95;;;9.70;;
20056;SDS011;10189;49.546;7.906;2024-01-27T05:40:55;21.83;;;9.55;;
20056;SDS011;10189;49.546;7.906;2024-01-27T05:43:21;21.05;;;9.35;;
20056;SDS011;10189;49.546;7.906;2024-01-27T05:45:47;20.48;;;10.43;;
20056;SDS011;10189;49.546;7.906;2024-01-27T05:48:14;19.65;;;9.43;;
20056;SDS011;10189;49.546;7.906;2024-01-27T05:50:41;18.33;;;9.68;;
20056;SDS011;10189;49.546;7.906;2024-01-27T05:53:08;21.17;;;9.68;;
20056;SDS011;10189;49.546;7.906;2024-01-27T05:55:34;22.40;;;10.88;;
20056;SDS011;10189;49.546;7.906;2024-01-27T05:58:00;22.38;;;9.65;;
20056;SDS011;10189;49.546;7.906;2024-01-27T06:00:26;17.35;;;9.70;;
20056;SDS011;10189;49.546;7.906;2024-01-27T06:02:52;25.55;;;12.95;;
20056;SDS011;10189;49.546;7.906;2024-01-27T06:05:18;29.98;;;16.50;;
20056;SDS011;10189;49.546;7.906;2024-01-27T06:07:44;72.75;;;36.97;;
20056;SDS011;10189;49.546;7.906;2024-01-27T06:10:11;69.38;;;35.65;;
20056;SDS011;10189;49.546;7.906;2024-01-27T06:12:37;47.78;;;22.40;;
20056;SDS011;10189;49.546;7.906;2024-01-27T06:15:04;38.78;;;17.17;;
20056;SDS011;10189;49.546;7.906;2024-01-27T06:17:31;30.42;;;13.43;;
20056;SDS011;10189;49.546;7.906;2024-01-27T06:19:57;26.65;;;10.80;;
20056;SDS011;10189;49.546;7.906;2024-01-27T06:22:22;24.02;;;10.13;;
20056;SDS011;10189;49.546;7.906;2024-01-27T06:24:48;22.35;;;9.60;;
20056;SDS011;10189;49.546;7.906;2024-01-27T06:27:14;18.90;;;9.10;;
20056;SDS011;10189;49.546;7.906;2024-01-27T06:29:40;16.05;;;8.25;;
20056;SDS011;10189;49.546;7.906;2024-01-27T06:32:07;28.45;;;14.05;;
20056;SDS011;10189;49.546;7.906;2024-01-27T06:34:33;61.80;;;34.75;;
20056;SDS011;10189;49.546;7.906;2024-01-27T06:36:59;40.75;;;16.77;;
20056;SDS011;10189;49.546;7.906;2024-01-27T06:39:24;34.33;;;18.00;;
20056;SDS011;10189;49.546;7.906;2024-01-27T06:41:51;26.85;;;13.25;;
20056;SDS011;10189;49.546;7.906;2024-01-27T06:44:16;21.77;;;11.38;;
20056;SDS011;10189;49.546;7.906;2024-01-27T06:46:42;29.98;;;14.13;;
20056;SDS011;10189;49.546;7.906;2024-01-27T06:49:10;23.45;;;12.43;;
20056;SDS011;10189;49.546;7.906;2024-01-27T06:51:35;25.67;;;13.15;;
20056;SDS011;10189;49.546;7.906;2024-01-27T06:54:01;26.05;;;12.68;;
20056;SDS011;10189;49.546;7.906;2024-01-27T06:56:27;24.58;;;12.25;;
20056;SDS011;10189;49.546;7.906;2024-01-27T06:58:53;26.48;;;14.70;;
20056;SDS011;10189;49.546;7.906;2024-01-27T07:01:19;31.98;;;16.88;;
20056;SDS011;10189;49.546;7.906;2024-01-27T07:03:45;26.55;;;13.30;;
20056;SDS011;10189;49.546;7.906;2024-01-27T07:06:10;37.53;;;18.35;;
20056;SDS011;10189;49.546;7.906;2024-01-27T07:08:36;59.33;;;26.13;;
20056;SDS011;10189;49.546;7.906;2024-01-27T07:11:02;47.80;;;25.05;;
20056;SDS011;10189;49.546;7.906;2024-01-27T07:13:28;60.35;;;31.13;;
20056;SDS011;10189;49.546;7.906;2024-01-27T07:15:55;44.70;;;23.52;;
20056;SDS011;10189;49.546;7.906;2024-01-27T07:18:23;43.38;;;24.60;;
20056;SDS011;10189;49.546;7.906;2024-01-27T07:20:49;61.03;;;32.90;;
20056;SDS011;10189;49.546;7.906;2024-01-27T07:23:16;33.67;;;18.60;;
20056;SDS011;10189;49.546;7.906;2024-01-27T07:25:43;25.95;;;14.40;;
20056;SDS011;10189;49.546;7.906;2024-01-27T07:28:09;28.60;;;14.57;;
20056;SDS011;10189;49.546;7.906;2024-01-27T07:30:35;36.03;;;16.67;;
20056;SDS011;10189;49.546;7.906;2024-01-27T07:33:02;38.78;;;17.35;;
20056;SDS011;10189;49.546;7.906;2024-01-27T07:35:28;35.35;;;14.52;;
20056;SDS011;10189;49.546;7.906;2024-01-27T07:37:54;33.60;;;14.70;;
20056;SDS011;10189;49.546;7.906;2024-01-27T07:40:20;26.92;;;13.88;;
20056;SDS011;10189;49.546;7.906;2024-01-27T07:42:46;30.02;;;14.65;;
20056;SDS011;10189;49.546;7.906;2024-01-27T07:45:11;33.35;;;15.48;;
20056;SDS011;10189;49.546;7.906;2024-01-27T07:47:37;24.60;;;13.82;;
20056;SDS011;10189;49.546;7.906;2024-01-27T07:50:03;26.88;;;13.90;;
20056;SDS011;10189;49.546;7.906;2024-01-27T07:52:29;27.92;;;14.70;;
20056;SDS011;10189;49.546;7.906;2024-01-27T07:54:55;34.00;;;14.55;;
20056;SDS011;10189;49.546;7.906;2024-01-27T07:57:21;30.48;;;14.93;;
20056;SDS011;10189;49.546;7.906;2024-01-27T07:59:47;29.90;;;15.82;;
20056;SDS011;10189;49.546;7.906;2024-01-27T08:02:13;33.60;;;17.67;;
20056;SDS011;10189;49.546;7.906;2024-01-27T08:04:39;46.92;;;25.63;;
20056;SDS011;10189;49.546;7.906;2024-01-27T08:07:04;45.60;;;22.85;;
20056;SDS011;10189;49.546;7.906;2024-01-27T08:09:34;39.80;;;19.13;;
20056;SDS011;10189;49.546;7.906;2024-01-27T08:12:03;28.85;;;18.30;;
20056;SDS011;10189;49.546;7.906;2024-01-27T08:14:29;35.17;;;18.08;;
20056;SDS011;10189;49.546;7.906;2024-01-27T08:16:55;35.35;;;19.02;;
20056;SDS011;10189;49.546;7.906;2024-01-27T08:19:23;34.80;;;17.90;;
20056;SDS011;10189;49.546;7.906;2024-01-27T08:21:50;33.30;;;19.00;;
20056;SDS011;10189;49.546;7.906;2024-01-27T08:24:16;37.50;;;19.23;;
20056;SDS011;10189;49.546;7.906;2024-01-27T08:26:42;35.88;;;18.98;;
20056;SDS011;10189;49.546;7.906;2024-01-27T08:29:08;35.53;;;17.75;;
20056;SDS011;10189;49.546;7.906;2024-01-27T08:31:34;30.40;;;17.23;;
20056;SDS011;10189;49.546;7.906;2024-01-27T08:34:03;32.45;;;16.73;;
20056;SDS011;10189;49.546;7.906;2024-01-27T08:36:28;27.52;;;15.57;;
20056;SDS011;10189;49.546;7.906;2024-01-27T08:38:54;35.75;;;18.92;;
20056;SDS011;10189;49.546;7.906;2024-01-27T08:41:20;34.83;;;21.52;;
20056;SDS011;10189;49.546;7.906;2024-01-27T08:43:47;41.63;;;25.30;;
20056;SDS011;10189;49.546;7.906;2024-01-27T08:46:12;35.55;;;21.25;;
20056;SDS011;10189;49.546;7.906;2024-01-27T08:48:40;30.65;;;20.08;;
20056;SDS011;10189;49.546;7.906;2024-01-27T08:51:09;35.28;;;20.55;;
20056;SDS011;10189;49.546;7.906;2024-01-27T08:53:35;37.03;;;23.42;;
20056;SDS011;10189;49.546;7.906;2024-01-27T08:56:01;161.15;;;91.45;;
20056;SDS011;10189;49.546;7.906;2024-01-27T08:58:27;169.38;;;98.68;;
20056;SDS011;10189;49.546;7.906;2024-01-27T09:00:53;110.13;;;66.10;;
20056;SDS011;10189;49.546;7.906;2024-01-27T09:03:19;111.72;;;67.50;;
20056;SDS011;10189;49.546;7.906;2024-01-27T09:05:48;108.57;;;67.57;;
20056;SDS011;10189;49.546;7.906;2024-01-27T09:08:14;128.20;;;80.45;;
20056;SDS011;10189;49.546;7.906;2024-01-27T09:10:41;110.88;;;73.05;;
20056;SDS011;10189;49.546;7.906;2024-01-27T09:13:07;81.95;;;55.35;;
20056;SDS011;10189;49.546;7.906;2024-01-27T09:15:33;43.90;;;29.65;;
20056;SDS011;10189;49.546;7.906;2024-01-27T09:17:58;41.60;;;27.65;;
20056;SDS011;10189;49.546;7.906;2024-01-27T09:20:24;33.60;;;22.70;;
20056;SDS011;10189;49.546;7.906;2024-01-27T09:22:50;33.65;;;21.38;;
20056;SDS011;10189;49.546;7.906;2024-01-27T09:25:16;29.85;;;19.50;;
20056;SDS011;10189;49.546;7.906;2024-01-27T09:27:42;34.65;;;20.85;;
20056;SDS011;10189;49.546;7.906;2024-01-27T09:30:08;59.78;;;37.38;;
20056;SDS011;10189;49.546;7.906;2024-01-27T09:32:35;51.17;;;31.40;;
20056;SDS011;10189;49.546;7.906;2024-01-27T09:35:01;22.63;;;12.27;;
20056;SDS011;10189;49.546;7.906;2024-01-27T09:37:26;17.88;;;9.63;;
20056;SDS011;10189;49.546;7.906;2024-01-27T09:39:52;26.67;;;13.90;;
20056;SDS011;10189;49.546;7.906;2024-01-27T09:42:20;20.23;;;12.02;;
20056;SDS011;10189;49.546;7.906;2024-01-27T09:44:48;22.15;;;11.07;;
20056;SDS011;10189;49.546;7.906;2024-01-27T09:47:15;24.60;;;11.25;;
20056;SDS011;10189;49.546;7.906;2024-01-27T09:49:41;20.73;;;10.15;;
20056;SDS011;10189;49.546;7.906;2024-01-27T09:52:08;26.38;;;12.10;;
20056;SDS011;10189;49.546;7.906;2024-01-27T09:54:35;19.70;;;11.23;;
20056;SDS011;10189;49.546;7.906;2024-01-27T09:57:01;17.42;;;8.80;;
20056;SDS011;10189;49.546;7.906;2024-01-27T09:59:28;18.73;;;10.18;;
20056;SDS011;10189;49.546;7.906;2024-01-27T10:01:56;19.83;;;8.95;;
20056;SDS011;10189;49.546;7.906;2024-01-27T10:04:24;14.32;;;8.18;;
20056;SDS011;10189;49.546;7.906;2024-01-27T10:06:52;16.10;;;8.07;;
20056;SDS011;10189;49.546;7.906;2024-01-27T10:09:18;15.15;;;7.63;;
20056;SDS011;10189;49.546;7.906;2024-01-27T10:11:47;17.42;;;7.18;;
20056;SDS011;10189;49.546;7.906;2024-01-27T10:14:13;12.35;;;6.45;;
20056;SDS011;10189;49.546;7.906;2024-01-27T10:16:45;11.55;;;4.70;;
20056;SDS011;10189;49.546;7.906;2024-01-27T10:19:14;15.13;;;5.50;;
20056;SDS011;10189;49.546;7.906;2024-01-27T10:21:43;11.43;;;4.47;;
20056;SDS011;10189;49.546;7.906;2024-01-27T10:24:10;10.82;;;4.93;;
20056;SDS011;10189;49.546;7.906;2024-01-27T10:26:36;11.80;;;5.28;;
20056;SDS011;10189;49.546;7.906;2024-01-27T10:29:02;14.90;;;5.20;;
20056;SDS011;10189;49.546;7.906;2024-01-27T10:31:28;15.88;;;6.55;;
20056;SDS011;10189;49.546;7.906;2024-01-27T10:33:56;13.32;;;6.97;;
20056;SDS011;10189;49.546;7.906;2024-01-27T10:36:23;14.82;;;5.70;;
20056;SDS011;10189;49.546;7.906;2024-01-27T10:38:51;21.13;;;10.48;;
20056;SDS011;10189;49.546;7.906;2024-01-27T10:41:23;46.30;;;33.75;;
20056;SDS011;10189;49.546;7.906;2024-01-27T10:43:51;15.77;;;6.53;;
20056;SDS011;10189;49.546;7.906;2024-01-27T10:46:18;11.15;;;5.43;;
20056;SDS011;10189;49.546;7.906;2024-01-27T10:51:30;25.67;;;11.15;;
20056;SDS011;10189;49.546;7.906;2024-01-27T10:54:02;33.00;;;17.42;;
20056;SDS011;10189;49.546;7.906;2024-01-27T10:56:32;116.72;;;56.85;;
20056;SDS011;10189;49.546;7.906;2024-01-27T10:58:59;80.28;;;45.67;;
20056;SDS011;10189;49.546;7.906;2024-01-27T11:01:25;16.00;;;9.43;;
20056;SDS011;10189;49.546;7.906;2024-01-27T11:03:53;20.23;;;11.85;;
20056;SDS011;10189;49.546;7.906;2024-01-27T11:06:21;21.90;;;11.77;;
20056;SDS011;10189;49.546;7.906;2024-01-27T11:08:51;24.58;;;11.77;;
20056;SDS011;10189;49.546;7.906;2024-01-27T11:11:18;16.25;;;9.07;;
20056;SDS011;10189;49.546;7.906;2024-01-27T11:13:44;22.85;;;10.43;;
20056;SDS011;10189;49.546;7.906;2024-01-27T11:16:16;19.10;;;8.93;;
20056;SDS011;10189;49.546;7.906;2024-01-27T11:18:44;11.88;;;4.57;;
20056;SDS011;10189;49.546;7.906;2024-01-27T11:21:14;12.60;;;5.03;;
20056;SDS011;10189;49.546;7.906;2024-01-27T11:23:41;18.80;;;9.95;;
20056;SDS011;10189;49.546;7.906;2024-01-27T11:26:09;18.38;;;6.75;;
20056;SDS011;10189;49.546;7.906;2024-01-27T11:28:39;15.68;;;7.22;;
20056;SDS011;10189;49.546;7.906;2024-01-27T11:31:06;19.27;;;11.30;;
20056;SDS011;10189;49.546;7.906;2024-01-27T11:33:33;24.45;;;10.98;;
20056;SDS011;10189;49.546;7.906;2024-01-27T11:36:07;12.27;;;4.18;;
20056;SDS011;10189;49.546;7.906;2024-01-27T11:38:33;11.95;;;3.95;;
20056;SDS011;10189;49.546;7.906;2024-01-27T11:40:59;17.40;;;8.02;;
20056;SDS011;10189;49.546;7.906;2024-01-27T11:43:26;19.35;;;8.88;;
20056;SDS011;10189;49.546;7.906;2024-01-27T11:45:59;20.50;;;9.90;;
20056;SDS011;10189;49.546;7.906;2024-01-27T11:48:29;17.20;;;6.70;;
20056;SDS011;10189;49.546;7.906;2024-01-27T11:51:08;11.00;;;4.50;;
20056;SDS011;10189;49.546;7.906;2024-01-27T11:53:37;17.65;;;9.25;;
20056;SDS011;10189;49.546;7.906;2024-01-27T11:56:04;11.52;;;4.70;;
20056;SDS011;10189;49.546;7.906;2024-01-27T11:58:31;15.65;;;4.28;;
20056;SDS011;10189;49.546;7.906;2024-01-27T12:00:58;11.52;;;5.38;;
20056;SDS011;10189;49.546;7.906;2024-01-27T12:03:25;9.90;;;4.13;;
20056;SDS011;10189;49.546;7.906;2024-01-27T12:05:51;14.88;;;4.28;;
20056;SDS011;10189;49.546;7.906;2024-01-27T12:08:17;11.48;;;3.72;;
20056;SDS011;10189;49.546;7.906;2024-01-27T12:10:43;12.57;;;4.10;;
20056;SDS011;10189;49.546;7.906;2024-01-27T12:13:09;10.73;;;4.32;;
20056;SDS011;10189;49.546;7.906;2024-01-27T12:15:35;10.02;;;4.00;;
20056;SDS011;10189;49.546;7.906;2024-01-27T12:18:01;8.98;;;3.67;;
20056;SDS011;10189;49.546;7.906;2024-01-27T12:20:29;9.90;;;3.65;;
20056;SDS011;10189;49.546;7.906;2024-01-27T12:23:05;11.20;;;4.03;;
20056;SDS011;10189;49.546;7.906;2024-01-27T12:25:32;7.90;;;3.17;;
20056;SDS011;10189;49.546;7.906;2024-01-27T12:28:01;10.10;;;3.38;;
20056;SDS011;10189;49.546;7.906;2024-01-27T12:30:34;10.73;;;3.40;;
20056;SDS011;10189;49.546;7.906;2024-01-27T12:33:00;7.72;;;2.80;;
20056;SDS011;10189;49.546;7.906;2024-01-27T12:35:34;14.60;;;4.68;;
20056;SDS011;10189;49.546;7.906;2024-01-27T12:38:00;9.13;;;3.90;;
20056;SDS011;10189;49.546;7.906;2024-01-27T12:40:25;8.63;;;3.33;;
20056;SDS011;10189;49.546;7.906;2024-01-27T12:42:51;8.18;;;2.85;;
20056;SDS011;10189;49.546;7.906;2024-01-27T12:45:17;11.00;;;3.03;;
20056;SDS011;10189;49.546;7.906;2024-01-27T12:47:43;7.35;;;2.83;;
20056;SDS011;10189;49.546;7.906;2024-01-27T12:50:12;5.40;;;2.35;;
20056;SDS011;10189;49.546;7.906;2024-01-27T12:52:38;11.50;;;5.40;;
20056;SDS011;10189;49.546;7.906;2024-01-27T12:55:05;22.65;;;10.07;;
20056;SDS011;10189;49.546;7.906;2024-01-27T12:57:31;7.63;;;3.97;;
20056;SDS011;10189;49.546;7.906;2024-01-27T12:59:57;17.95;;;11.95;;
20056;SDS011;10189;49.546;7.906;2024-01-27T13:02:24;15.48;;;8.40;;
20056;SDS011;10189;49.546;7.906;2024-01-27T13:04:50;11.25;;;3.38;;
20056;SDS011;10189;49.546;7.906;2024-01-27T13:07:16;7.95;;;3.63;;
20056;SDS011;10189;49.546;7.906;2024-01-27T13:09:41;8.30;;;2.58;;
20056;SDS011;10189;49.546;7.906;2024-01-27T13:12:07;5.93;;;2.03;;
20056;SDS011;10189;49.546;7.906;2024-01-27T13:14:33;6.03;;;4.05;;
20056;SDS011;10189;49.546;7.906;2024-01-27T13:16:59;10.80;;;3.47;;
20056;SDS011;10189;49.546;7.906;2024-01-27T13:19:26;9.23;;;2.30;;
20056;SDS011;10189;49.546;7.906;2024-01-27T13:21:53;9.25;;;2.20;;
20056;SDS011;10189;49.546;7.906;2024-01-27T13:24:19;7.30;;;2.60;;
20056;SDS011;10189;49.546;7.906;2024-01-27T13:26:45;9.18;;;2.88;;
20056;SDS011;10189;49.546;7.906;2024-01-27T13:29:11;9.52;;;2.58;;
20056;SDS011;10189;49.546;7.906;2024-01-27T13:31:37;6.50;;;2.70;;
20056;SDS011;10189;49.546;7.906;2024-01-27T13:34:03;10.00;;;3.20;;
20056;SDS011;10189;49.546;7.906;2024-01-27T13:36:30;7.70;;;2.85;;
20056;SDS011;10189;49.546;7.906;2024-01-27T13:38:56;10.77;;;3.45;;
20056;SDS011;10189;49.546;7.906;2024-01-27T13:41:23;10.35;;;3.28;;
20056;SDS011;10189;49.546;7.906;2024-01-27T13:43:49;13.30;;;4.25;;
20056;SDS011;10189;49.546;7.906;2024-01-27T13:46:15;10.13;;;3.15;;
20056;SDS011;10189;49.546;7.906;2024-01-27T13:48:42;7.00;;;3.03;;
20056;SDS011;10189;49.546;7.906;2024-01-27T13:51:08;8.98;;;3.13;;
20056;SDS011;10189;49.546;7.906;2024-01-27T13:53:34;11.10;;;3.28;;
20056;SDS011;10189;49.546;7.906;2024-01-27T13:56:00;10.10;;;3.40;;
20056;SDS011;10189;49.546;7.906;2024-01-27T13:58:25;9.02;;;3.58;;
20056;SDS011;10189;49.546;7.906;2024-01-27T14:00:52;9.75;;;3.53;;
20056;SDS011;10189;49.546;7.906;2024-01-27T14:03:18;9.57;;;3.10;;
20056;SDS011;10189;49.546;7.906;2024-01-27T14:05:43;11.40;;;2.95;;
20056;SDS011;10189;49.546;7.906;2024-01-27T14:08:11;9.00;;;3.53;;
20056;SDS011;10189;49.546;7.906;2024-01-27T14:10:37;13.15;;;3.17;;
20056;SDS011;10189;49.546;7.906;2024-01-27T14:13:04;11.25;;;3.30;;
20056;SDS011;10189;49.546;7.906;2024-01-27T14:15:37;11.43;;;3.55;;
20056;SDS011;10189;49.546;7.906;2024-01-27T14:18:03;7.60;;;2.85;;
20056;SDS011;10189;49.546;7.906;2024-01-27T14:20:31;12.75;;;2.72;;
20056;SDS011;10189;49.546;7.906;2024-01-27T14:23:02;8.48;;;2.80;;
20056;SDS011;10189;49.546;7.906;2024-01-27T14:25:29;9.00;;;2.67;;
20056;SDS011;10189;49.546;7.906;2024-01-27T14:27:56;14.10;;;2.97;;
20056;SDS011;10189;49.546;7.906;2024-01-27T14:30:22;10.55;;;2.70;;